Time;durP1;ratioP1;P1;durP2;ratioP2;P2;SDS_P1;SDS_P2;PMS_P1;PMS_P2;Temp;Humidity;BMP_temperature;BMP_pressure;BME280_temperature;BME280_humidity;BME280_pressure;Samples;Min_cycle;Max_cycle;Signal;HPM_P1;HPM_P2
2024/03/04 00:01:12;;;;;;;98.72;36.97;;;;;;;;;;5053052;28;20033;-70
2024/03/04 00:03:58;;;;;;;94.30;36.20;;;;;;;;;;5057344;28;20028;-70
2024/03/04 00:06:44;;;;;;;91.53;37.55;;;;;;;;;;5056223;28;20020;-70
2024/03/04 00:09:30;;;;;;;92.60;35.95;;;;;;;;;;5042557;28;20025;-70
2024/03/04 00:12:15;;;;;;;88.70;35.53;;;;;;;;;;5056823;28;20083;-70
2024/03/04 00:15:01;;;;;;;94.53;35.22;;;;;;;;;;5056109;28;20021;-70
2024/03/04 00:17:49;;;;;;;100.57;39.30;;;;;;;;;;5055530;28;20032;-70
2024/03/04 00:20:34;;;;;;;88.00;36.30;;;;;;;;;;5042517;28;20478;-70
2024/03/04 00:23:20;;;;;;;94.20;37.58;;;;;;;;;;5055932;28;20115;-70
2024/03/04 00:26:06;;;;;;;92.22;35.28;;;;;;;;;;5056549;28;20025;-70
2024/03/04 00:28:52;;;;;;;90.97;34.88;;;;;;;;;;5057176;28;20075;-70
2024/03/04 00:31:39;;;;;;;96.45;35.60;;;;;;;;;;5056013;28;20096;-70
2024/03/04 00:34:24;;;;;;;89.63;35.30;;;;;;;;;;5056422;28;20029;-70
2024/03/04 00:37:10;;;;;;;99.05;35.35;;;;;;;;;;5055357;28;20103;-70
2024/03/04 00:39:56;;;;;;;86.68;35.90;;;;;;;;;;5055775;28;20482;-70
2024/03/04 00:42:42;;;;;;;94.03;33.22;;;;;;;;;;5055181;28;20029;-70
2024/03/04 00:45:27;;;;;;;105.65;37.13;;;;;;;;;;5055024;28;20108;-69
2024/03/04 00:48:13;;;;;;;83.80;33.85;;;;;;;;;;5056420;28;20021;-70
2024/03/04 00:51:00;;;;;;;93.38;34.00;;;;;;;;;;5055067;28;20021;-70
2024/03/04 00:53:46;;;;;;;85.80;31.42;;;;;;;;;;5055907;28;20438;-70
2024/03/04 00:56:31;;;;;;;85.50;30.45;;;;;;;;;;5040944;28;20436;-70
2024/03/04 00:59:17;;;;;;;91.28;33.67;;;;;;;;;;5056012;28;20428;-70
2024/03/04 01:02:05;;;;;;;85.65;34.63;;;;;;;;;;5055850;28;20474;-70
2024/03/04 01:04:51;;;;;;;87.43;32.67;;;;;;;;;;5055882;28;20044;-70
2024/03/04 01:07:37;;;;;;;87.85;33.38;;;;;;;;;;5055284;28;20024;-70
2024/03/04 01:10:23;;;;;;;92.80;30.95;;;;;;;;;;5056029;28;20428;-70
2024/03/04 01:13:09;;;;;;;83.70;34.17;;;;;;;;;;5053872;28;20029;-70
2024/03/04 01:15:55;;;;;;;81.10;32.47;;;;;;;;;;5040112;28;20024;-69
2024/03/04 01:18:40;;;;;;;96.32;35.63;;;;;;;;;;5055646;28;20112;-70
2024/03/04 01:21:26;;;;;;;94.38;33.88;;;;;;;;;;5054358;28;20037;-69
2024/03/04 01:24:11;;;;;;;90.32;34.88;;;;;;;;;;5054712;28;20079;-69
2024/03/04 01:26:58;;;;;;;94.28;36.45;;;;;;;;;;5054503;28;20028;-70
2024/03/04 01:29:43;;;;;;;88.20;33.30;;;;;;;;;;5055271;28;20028;-70
2024/03/04 01:32:29;;;;;;;94.10;36.33;;;;;;;;;;5055420;28;20024;-69
2024/03/04 01:35:15;;;;;;;82.82;31.73;;;;;;;;;;5055645;28;20488;-69
2024/03/04 01:38:00;;;;;;;93.28;34.70;;;;;;;;;;5054719;28;20521;-70
2024/03/04 01:40:46;;;;;;;91.88;34.47;;;;;;;;;;5055501;28;20056;-70
2024/03/04 01:43:32;;;;;;;97.40;34.65;;;;;;;;;;5054797;28;20025;-70
2024/03/04 01:46:18;;;;;;;85.30;34.47;;;;;;;;;;5053303;28;20029;-70
2024/03/04 01:49:04;;;;;;;94.47;34.42;;;;;;;;;;5039922;28;20025;-70
2024/03/04 01:51:50;;;;;;;79.70;32.78;;;;;;;;;;5055481;28;20021;-70
2024/03/04 01:54:38;;;;;;;90.95;32.55;;;;;;;;;;5042976;28;20414;-69
2024/03/04 01:57:23;;;;;;;87.45;33.35;;;;;;;;;;5037587;28;20025;-69
2024/03/04 02:00:11;;;;;;;92.55;33.78;;;;;;;;;;5020310;28;20556;-69
2024/03/04 02:02:57;;;;;;;92.35;33.65;;;;;;;;;;5011481;28;20038;-69
2024/03/04 02:05:46;;;;;;;92.38;34.67;;;;;;;;;;5034343;28;20151;-69
2024/03/04 02:08:32;;;;;;;88.32;34.65;;;;;;;;;;5033336;28;20108;-69
2024/03/04 02:11:19;;;;;;;89.65;31.52;;;;;;;;;;5035022;28;20025;-70
2024/03/04 02:14:06;;;;;;;86.68;30.92;;;;;;;;;;5034961;28;20025;-70
2024/03/04 02:16:51;;;;;;;87.70;31.30;;;;;;;;;;5033472;28;20026;-70
2024/03/04 02:19:37;;;;;;;80.80;31.42;;;;;;;;;;5033230;28;20049;-70
2024/03/04 02:22:26;;;;;;;73.53;29.58;;;;;;;;;;5033256;28;20057;-70
2024/03/04 02:25:12;;;;;;;83.57;29.88;;;;;;;;;;5037461;28;20382;-70
2024/03/04 02:27:58;;;;;;;83.60;31.80;;;;;;;;;;5054008;28;20028;-69
2024/03/04 02:30:43;;;;;;;79.07;31.55;;;;;;;;;;5052840;28;20044;-69
2024/03/04 02:33:29;;;;;;;82.28;30.27;;;;;;;;;;5053471;28;20045;-69
2024/03/04 02:36:15;;;;;;;75.82;30.60;;;;;;;;;;5052401;28;20021;-69
2024/03/04 02:39:03;;;;;;;76.40;30.98;;;;;;;;;;5053885;28;20481;-70
2024/03/04 02:41:49;;;;;;;70.70;29.08;;;;;;;;;;5039958;28;20029;-69
2024/03/04 02:44:35;;;;;;;80.10;31.10;;;;;;;;;;5034391;28;20045;-69
2024/03/04 02:47:21;;;;;;;76.13;27.23;;;;;;;;;;5033603;28;20456;-69
2024/03/04 02:50:07;;;;;;;78.43;31.30;;;;;;;;;;5033723;28;20037;-69
2024/03/04 02:52:53;;;;;;;69.55;30.30;;;;;;;;;;5044927;28;20075;-70
2024/03/04 02:55:39;;;;;;;66.90;28.48;;;;;;;;;;5044987;28;20057;-69
2024/03/04 02:58:27;;;;;;;68.50;29.30;;;;;;;;;;5050803;28;20120;-68
2024/03/04 03:01:13;;;;;;;74.43;30.42;;;;;;;;;;5053447;28;20049;-69
2024/03/04 03:03:58;;;;;;;69.07;29.20;;;;;;;;;;5053214;28;20101;-70
2024/03/04 03:06:44;;;;;;;64.65;29.27;;;;;;;;;;5051744;28;20055;-69
2024/03/04 03:09:30;;;;;;;73.95;28.92;;;;;;;;;;5053578;28;20025;-69
2024/03/04 03:12:17;;;;;;;67.05;28.27;;;;;;;;;;5052585;28;20021;-69
2024/03/04 03:15:03;;;;;;;74.20;29.50;;;;;;;;;;5052738;28;20013;-69
2024/03/04 03:17:49;;;;;;;66.50;28.40;;;;;;;;;;5053200;28;20033;-69
2024/03/04 03:20:35;;;;;;;70.03;30.52;;;;;;;;;;5051249;28;20017;-69
2024/03/04 03:23:20;;;;;;;64.93;28.25;;;;;;;;;;5053167;28;20083;-69
2024/03/04 03:26:06;;;;;;;68.65;28.05;;;;;;;;;;5051968;28;20393;-69
2024/03/04 03:28:52;;;;;;;63.55;27.77;;;;;;;;;;5052111;28;20021;-69
2024/03/04 03:31:37;;;;;;;69.45;30.10;;;;;;;;;;5053263;28;20020;-69
2024/03/04 03:34:23;;;;;;;70.97;27.27;;;;;;;;;;5052046;28;20021;-69
2024/03/04 03:37:09;;;;;;;62.42;27.20;;;;;;;;;;5036038;28;20111;-69
2024/03/04 03:39:54;;;;;;;68.22;28.75;;;;;;;;;;5033812;28;20075;-69
2024/03/04 03:42:41;;;;;;;66.88;29.98;;;;;;;;;;5031790;28;20104;-70
2024/03/04 03:45:27;;;;;;;58.97;24.98;;;;;;;;;;5032359;28;20406;-70
2024/03/04 03:48:16;;;;;;;65.38;28.23;;;;;;;;;;5044790;28;20025;-69
2024/03/04 03:51:01;;;;;;;69.38;28.50;;;;;;;;;;5038271;28;20044;-69
2024/03/04 03:53:47;;;;;;;71.40;29.55;;;;;;;;;;5038781;28;20083;-69
2024/03/04 03:56:33;;;;;;;62.03;24.85;;;;;;;;;;5033779;28;20422;-69
2024/03/04 03:59:18;;;;;;;63.63;26.83;;;;;;;;;;5034005;28;20021;-69
2024/03/04 04:02:04;;;;;;;58.05;27.38;;;;;;;;;;5051528;28;20112;-69
2024/03/04 04:04:50;;;;;;;62.20;27.48;;;;;;;;;;5053070;28;20021;-69
2024/03/04 04:07:35;;;;;;;62.47;26.63;;;;;;;;;;5053389;28;20489;-69
2024/03/04 04:10:21;;;;;;;71.72;27.77;;;;;;;;;;5050413;28;20025;-69
2024/03/04 04:13:07;;;;;;;70.50;28.40;;;;;;;;;;5049769;28;20021;-69
2024/03/04 04:15:52;;;;;;;63.42;28.83;;;;;;;;;;5051038;28;20028;-69
2024/03/04 04:18:40;;;;;;;63.88;27.88;;;;;;;;;;5044084;28;20029;-69
2024/03/04 04:21:26;;;;;;;56.67;24.73;;;;;;;;;;5037885;28;20406;-69
2024/03/04 04:24:11;;;;;;;66.47;29.38;;;;;;;;;;5034366;28;20025;-69
2024/03/04 04:26:57;;;;;;;63.05;23.80;;;;;;;;;;5038531;28;20435;-69
2024/03/04 04:29:43;;;;;;;64.57;25.40;;;;;;;;;;5031998;28;20371;-69
2024/03/04 04:32:28;;;;;;;56.83;24.13;;;;;;;;;;5037296;28;20401;-69
2024/03/04 04:35:14;;;;;;;62.60;25.77;;;;;;;;;;5032643;28;20022;-69
2024/03/04 04:38:00;;;;;;;54.90;26.10;;;;;;;;;;5035391;28;20020;-69
2024/03/04 04:40:49;;;;;;;59.08;25.75;;;;;;;;;;5037015;28;20036;-69
2024/03/04 04:43:36;;;;;;;58.85;28.92;;;;;;;;;;5048601;28;20021;-69
2024/03/04 04:46:21;;;;;;;65.18;26.45;;;;;;;;;;5033458;28;20026;-69
2024/03/04 04:49:07;;;;;;;58.97;27.00;;;;;;;;;;5033879;28;20060;-69
2024/03/04 04:51:53;;;;;;;61.95;26.48;;;;;;;;;;5054573;28;20033;-69
2024/03/04 04:54:39;;;;;;;61.40;26.25;;;;;;;;;;5054455;28;20032;-69
2024/03/04 04:57:27;;;;;;;59.63;24.60;;;;;;;;;;5053976;28;20394;-69
2024/03/04 05:00:14;;;;;;;59.90;27.52;;;;;;;;;;5054886;28;20021;-70
2024/03/04 05:02:59;;;;;;;66.13;27.92;;;;;;;;;;5076230;22;20045;-67
2024/03/04 05:05:45;;;;;;;58.28;26.23;;;;;;;;;;5036306;28;20021;-68
2024/03/04 05:08:31;;;;;;;50.97;23.60;;;;;;;;;;5035348;28;23135;-68
2024/03/04 05:11:17;;;;;;;61.00;26.00;;;;;;;;;;5052051;28;20521;-68
2024/03/04 05:14:03;;;;;;;55.17;26.88;;;;;;;;;;5019512;28;20025;-67
2024/03/04 05:16:48;;;;;;;71.95;27.25;;;;;;;;;;5017271;28;20022;-68
2024/03/04 05:19:35;;;;;;;57.15;26.65;;;;;;;;;;5015241;28;20105;-67
2024/03/04 05:22:21;;;;;;;60.65;25.98;;;;;;;;;;5015437;28;20041;-68
2024/03/04 05:25:08;;;;;;;66.97;27.58;;;;;;;;;;5030117;28;20033;-67
2024/03/04 05:27:53;;;;;;;66.40;27.23;;;;;;;;;;5034376;28;20048;-68
2024/03/04 05:30:39;;;;;;;59.25;25.23;;;;;;;;;;5012836;28;20029;-67
2024/03/04 05:33:25;;;;;;;63.83;25.98;;;;;;;;;;5035039;28;20030;-68
2024/03/04 05:36:10;;;;;;;53.63;25.25;;;;;;;;;;5033590;28;20033;-67
2024/03/04 05:38:56;;;;;;;65.50;26.70;;;;;;;;;;5034602;28;20064;-67
2024/03/04 05:41:42;;;;;;;66.55;27.23;;;;;;;;;;5033596;28;20025;-68
2024/03/04 05:44:27;;;;;;;67.40;25.98;;;;;;;;;;5033925;28;20029;-68
2024/03/04 05:47:13;;;;;;;60.88;25.30;;;;;;;;;;5034242;28;20045;-68
2024/03/04 05:49:59;;;;;;;60.53;24.42;;;;;;;;;;5034609;28;20032;-67
2024/03/04 05:52:45;;;;;;;62.22;26.63;;;;;;;;;;5032198;28;20021;-68
2024/03/04 05:55:31;;;;;;;60.67;26.38;;;;;;;;;;5019428;28;20053;-68
2024/03/04 05:58:17;;;;;;;59.35;26.77;;;;;;;;;;5031958;28;20587;-68
2024/03/04 06:01:03;;;;;;;67.07;27.77;;;;;;;;;;5002678;28;20046;-68
2024/03/04 06:03:48;;;;;;;61.50;26.48;;;;;;;;;;5013439;28;20168;-68
2024/03/04 06:06:34;;;;;;;59.53;25.20;;;;;;;;;;5013338;28;20026;-67
2024/03/04 06:09:21;;;;;;;53.15;25.05;;;;;;;;;;5033701;28;20490;-68
2024/03/04 06:12:08;;;;;;;61.15;26.83;;;;;;;;;;5019084;28;20032;-67
2024/03/04 06:14:54;;;;;;;56.15;25.40;;;;;;;;;;5002324;28;20121;-67
2024/03/04 06:17:39;;;;;;;53.13;25.42;;;;;;;;;;5014098;28;20033;-67
2024/03/04 06:20:25;;;;;;;60.72;27.33;;;;;;;;;;5028161;28;20032;-68
2024/03/04 06:23:11;;;;;;;59.17;24.10;;;;;;;;;;5033919;28;20025;-68
2024/03/04 06:25:56;;;;;;;63.22;28.17;;;;;;;;;;5030225;28;20030;-68
2024/03/04 06:28:42;;;;;;;62.20;27.52;;;;;;;;;;5013113;28;20092;-67
2024/03/04 06:31:28;;;;;;;49.83;24.80;;;;;;;;;;5019614;28;20494;-67
2024/03/04 06:34:13;;;;;;;65.88;27.13;;;;;;;;;;5033516;28;20033;-67
2024/03/04 06:36:59;;;;;;;60.75;27.92;;;;;;;;;;5032934;28;20022;-67
2024/03/04 06:39:45;;;;;;;60.10;25.98;;;;;;;;;;5006228;28;20044;-67
2024/03/04 06:42:31;;;;;;;64.97;26.70;;;;;;;;;;5034297;28;20037;-67
2024/03/04 06:45:16;;;;;;;58.28;27.05;;;;;;;;;;5032801;28;20021;-67
2024/03/04 06:48:03;;;;;;;66.35;27.27;;;;;;;;;;5033204;28;20521;-67
2024/03/04 06:50:48;;;;;;;60.63;28.45;;;;;;;;;;5032072;28;20072;-68
2024/03/04 06:53:34;;;;;;;61.47;27.40;;;;;;;;;;5032979;28;20025;-67
2024/03/04 06:56:21;;;;;;;55.05;25.17;;;;;;;;;;5032188;28;20560;-68
2024/03/04 06:59:06;;;;;;;65.55;26.25;;;;;;;;;;5030983;28;20049;-67
2024/03/04 07:01:52;;;;;;;70.88;26.83;;;;;;;;;;5017660;28;20063;-67
2024/03/04 07:04:38;;;;;;;62.97;27.75;;;;;;;;;;5033446;28;20025;-68
2024/03/04 07:07:24;;;;;;;62.97;27.08;;;;;;;;;;5032056;28;20056;-68
2024/03/04 07:10:10;;;;;;;66.50;26.52;;;;;;;;;;5016233;28;20098;-67
2024/03/04 07:12:56;;;;;;;62.95;25.98;;;;;;;;;;5018568;28;20475;-67
2024/03/04 07:15:41;;;;;;;61.05;25.67;;;;;;;;;;5030842;28;20088;-67
2024/03/04 07:18:31;;;;;;;68.47;27.48;;;;;;;;;;5033157;28;20021;-68
2024/03/04 07:21:17;;;;;;;59.50;26.50;;;;;;;;;;5024539;28;20169;-68
2024/03/04 07:24:02;;;;;;;58.45;23.00;;;;;;;;;;5020823;28;20499;-67
2024/03/04 07:26:48;;;;;;;63.20;27.15;;;;;;;;;;5014232;28;20028;-67
2024/03/04 07:29:34;;;;;;;53.08;27.10;;;;;;;;;;5013887;28;20066;-68
2024/03/04 07:32:19;;;;;;;64.68;28.58;;;;;;;;;;5017375;28;20491;-67
2024/03/04 07:35:05;;;;;;;63.15;26.00;;;;;;;;;;5030693;28;20100;-67
2024/03/04 07:37:51;;;;;;;53.00;26.27;;;;;;;;;;5031958;28;20032;-67
2024/03/04 07:40:37;;;;;;;54.35;26.15;;;;;;;;;;5032801;28;20022;-67
2024/03/04 07:43:22;;;;;;;55.40;25.13;;;;;;;;;;5016309;28;20483;-67
2024/03/04 07:46:08;;;;;;;62.25;26.42;;;;;;;;;;5031459;28;20032;-67
2024/03/04 07:48:54;;;;;;;66.28;30.33;;;;;;;;;;5031944;28;20033;-67
2024/03/04 07:51:39;;;;;;;66.38;28.50;;;;;;;;;;5014968;28;20025;-67
2024/03/04 07:54:25;;;;;;;63.42;27.83;;;;;;;;;;5026781;28;20025;-67
2024/03/04 07:57:12;;;;;;;64.40;26.88;;;;;;;;;;5032245;28;20029;-67
2024/03/04 07:59:57;;;;;;;66.45;27.77;;;;;;;;;;5025844;28;20084;-67
2024/03/04 08:02:43;;;;;;;60.80;27.77;;;;;;;;;;5031584;28;20557;-67
2024/03/04 08:05:29;;;;;;;53.25;27.08;;;;;;;;;;5030904;28;20076;-67
2024/03/04 08:08:14;;;;;;;58.15;26.95;;;;;;;;;;5016777;28;20022;-67
2024/03/04 08:11:00;;;;;;;54.28;25.02;;;;;;;;;;5028010;28;20032;-67
2024/03/04 08:13:46;;;;;;;58.85;25.83;;;;;;;;;;4985075;28;20491;-67
2024/03/04 08:16:31;;;;;;;47.92;23.77;;;;;;;;;;5014644;28;20064;-67
2024/03/04 08:19:17;;;;;;;57.72;25.67;;;;;;;;;;5015539;28;20013;-67
2024/03/04 08:22:03;;;;;;;53.33;24.75;;;;;;;;;;5016545;28;20060;-67
2024/03/04 08:24:49;;;;;;;56.00;24.63;;;;;;;;;;5031518;28;20025;-67
2024/03/04 08:27:34;;;;;;;56.63;24.77;;;;;;;;;;5020747;28;20088;-67
2024/03/04 08:30:20;;;;;;;54.35;25.25;;;;;;;;;;5015606;28;20024;-67
2024/03/04 08:33:06;;;;;;;52.72;25.20;;;;;;;;;;5020761;28;20486;-67
2024/03/04 08:35:51;;;;;;;58.45;26.85;;;;;;;;;;5015964;28;20091;-67
2024/03/04 08:38:37;;;;;;;50.67;24.92;;;;;;;;;;5036299;28;20021;-66
2024/03/04 08:41:24;;;;;;;56.90;25.27;;;;;;;;;;5030750;28;20022;-66
2024/03/04 08:44:09;;;;;;;48.92;25.13;;;;;;;;;;5034127;28;20029;-66
2024/03/04 08:46:55;;;;;;;48.53;24.45;;;;;;;;;;5034303;28;20499;-67
2024/03/04 08:49:41;;;;;;;51.90;23.15;;;;;;;;;;5021531;28;20424;-66
2024/03/04 08:52:27;;;;;;;47.83;24.42;;;;;;;;;;5020206;28;20121;-67
2024/03/04 08:55:13;;;;;;;51.70;24.27;;;;;;;;;;5001159;28;20028;-66
2024/03/04 08:57:58;;;;;;;50.03;23.45;;;;;;;;;;5034900;28;20499;-66
2024/03/04 09:00:44;;;;;;;57.40;25.20;;;;;;;;;;5035320;28;20049;-66
2024/03/04 09:03:30;;;;;;;50.55;25.15;;;;;;;;;;5035002;28;20108;-66
2024/03/04 09:06:16;;;;;;;59.00;26.15;;;;;;;;;;5034388;28;20030;-66
2024/03/04 09:09:02;;;;;;;57.17;24.88;;;;;;;;;;5020097;28;20036;-66
2024/03/04 09:11:51;;;;;;;55.85;25.20;;;;;;;;;;5035165;28;20029;-66
2024/03/04 09:14:37;;;;;;;55.47;25.02;;;;;;;;;;5030909;28;20112;-66
2024/03/04 09:17:23;;;;;;;64.18;25.83;;;;;;;;;;5033983;28;20026;-66
2024/03/04 09:20:08;;;;;;;55.10;24.42;;;;;;;;;;5020221;28;20439;-66
2024/03/04 09:22:54;;;;;;;57.00;26.33;;;;;;;;;;5034137;28;20025;-66
2024/03/04 09:25:40;;;;;;;56.13;26.02;;;;;;;;;;5033154;28;20018;-66
2024/03/04 09:28:26;;;;;;;59.38;25.48;;;;;;;;;;5020219;28;20053;-66
2024/03/04 09:31:11;;;;;;;62.85;27.45;;;;;;;;;;5018455;28;20049;-66
2024/03/04 09:33:57;;;;;;;59.85;26.52;;;;;;;;;;5030211;28;20091;-66
2024/03/04 09:36:43;;;;;;;61.03;28.15;;;;;;;;;;5033204;28;20025;-66
2024/03/04 09:39:28;;;;;;;59.42;28.10;;;;;;;;;;5019973;28;20043;-66
2024/03/04 09:42:15;;;;;;;59.30;26.48;;;;;;;;;;5034556;28;20491;-67
2024/03/04 09:45:02;;;;;;;61.65;25.23;;;;;;;;;;5010045;28;20389;-67
2024/03/04 09:47:54;;;;;;;63.55;27.90;;;;;;;;;;5013641;28;20053;-67
2024/03/04 09:50:40;;;;;;;58.63;25.65;;;;;;;;;;5013548;28;20376;-67
2024/03/04 09:53:27;;;;;;;59.92;26.77;;;;;;;;;;5014350;28;20026;-67
2024/03/04 09:56:13;;;;;;;67.55;28.45;;;;;;;;;;5003742;28;20029;-67
2024/03/04 09:58:58;;;;;;;59.40;25.52;;;;;;;;;;5015256;28;20400;-67
2024/03/04 10:01:45;;;;;;;67.75;28.80;;;;;;;;;;5017185;28;20145;-68
2024/03/04 10:04:31;;;;;;;57.28;27.20;;;;;;;;;;5034128;28;20091;-67
2024/03/04 10:07:17;;;;;;;56.17;26.20;;;;;;;;;;5014683;28;20022;-67
2024/03/04 10:10:04;;;;;;;54.95;27.35;;;;;;;;;;5017886;28;20022;-67
2024/03/04 10:12:49;;;;;;;60.45;27.80;;;;;;;;;;5034875;28;20116;-67
2024/03/04 10:15:35;;;;;;;65.53;29.13;;;;;;;;;;5034091;28;20487;-68
2024/03/04 10:18:21;;;;;;;57.22;29.20;;;;;;;;;;5034170;28;20036;-69
2024/03/04 10:21:07;;;;;;;56.03;28.02;;;;;;;;;;5033563;28;20021;-69
2024/03/04 10:23:53;;;;;;;63.83;26.27;;;;;;;;;;5018299;28;20400;-69
2024/03/04 10:26:40;;;;;;;62.13;29.92;;;;;;;;;;5033982;28;20021;-69
2024/03/04 10:29:28;;;;;;;55.03;28.55;;;;;;;;;;5015352;28;20057;-70
2024/03/04 10:32:18;;;;;;;58.17;25.83;;;;;;;;;;5033500;28;20051;-69
2024/03/04 10:35:05;;;;;;;58.88;26.52;;;;;;;;;;4995085;28;20451;-69
2024/03/04 10:37:50;;;;;;;57.03;28.00;;;;;;;;;;5008357;28;20160;-69
2024/03/04 10:40:37;;;;;;;64.18;27.08;;;;;;;;;;5016923;28;20024;-70
2024/03/04 10:43:22;;;;;;;56.92;27.02;;;;;;;;;;5013753;28;20454;-70
2024/03/04 10:46:08;;;;;;;57.65;29.45;;;;;;;;;;5028886;28;20136;-71
2024/03/04 10:48:54;;;;;;;57.67;27.45;;;;;;;;;;5022214;28;20510;-68
2024/03/04 10:51:40;;;;;;;61.08;28.90;;;;;;;;;;5023245;28;20063;-69
2024/03/04 10:54:25;;;;;;;70.20;30.92;;;;;;;;;;5024316;28;20113;-69
2024/03/04 10:57:27;;;;;;;60.83;28.48;;;;;;;;;;5031524;28;20059;-70
2024/03/04 11:00:25;;;;;;;59.97;31.30;;;;;;;;;;5031918;28;20022;-69
2024/03/04 11:03:15;;;;;;;69.55;30.90;;;;;;;;;;5045843;23;20098;-71
2024/03/04 11:06:03;;;;;;;61.72;28.60;;;;;;;;;;5021503;28;20079;-71
2024/03/04 11:08:52;;;;;;;62.40;29.08;;;;;;;;;;5030449;28;20594;-71
2024/03/04 11:11:42;;;;;;;63.15;28.52;;;;;;;;;;5030107;28;20366;-71
2024/03/04 11:14:33;;;;;;;61.85;30.65;;;;;;;;;;5013286;28;20109;-71
2024/03/04 11:17:22;;;;;;;65.00;31.02;;;;;;;;;;5011678;28;20104;-71
2024/03/04 11:20:08;;;;;;;58.88;29.40;;;;;;;;;;5010608;28;20022;-71
2024/03/04 11:22:54;;;;;;;55.03;28.77;;;;;;;;;;5011600;28;20204;-71
2024/03/04 11:25:39;;;;;;;55.72;30.02;;;;;;;;;;5012691;28;20507;-71
2024/03/04 11:28:25;;;;;;;56.33;30.27;;;;;;;;;;5010977;28;20022;-71
2024/03/04 11:31:11;;;;;;;56.65;30.58;;;;;;;;;;5011703;28;20109;-71
2024/03/04 11:34:05;;;;;;;59.00;28.10;;;;;;;;;;5012397;28;20556;-71
2024/03/04 11:36:51;;;;;;;69.18;31.67;;;;;;;;;;5010334;28;20057;-71
2024/03/04 11:39:41;;;;;;;63.35;31.45;;;;;;;;;;5012368;28;20109;-71
2024/03/04 11:42:38;;;;;;;64.50;29.23;;;;;;;;;;4996727;28;20045;-71
2024/03/04 11:45:34;;;;;;;59.25;30.38;;;;;;;;;;4991359;28;20080;-71
2024/03/04 11:48:29;;;;;;;63.65;30.58;;;;;;;;;;5007037;28;20068;-71
2024/03/04 11:51:44;;;;;;;56.80;30.25;;;;;;;;;;5011264;28;20045;-70
2024/03/04 11:54:40;;;;;;;61.53;29.15;;;;;;;;;;5009950;28;20062;-71
2024/03/04 11:57:25;;;;;;;55.03;28.33;;;;;;;;;;5001214;28;20026;-70
2024/03/04 12:00:15;;;;;;;62.83;28.60;;;;;;;;;;5015404;28;20547;-71
2024/03/04 12:03:04;;;;;;;54.35;28.55;;;;;;;;;;5014690;28;20041;-71
2024/03/04 12:05:49;;;;;;;65.20;29.05;;;;;;;;;;5015308;28;20030;-71
2024/03/04 12:08:35;;;;;;;57.58;28.10;;;;;;;;;;5015291;28;20022;-71
2024/03/04 12:11:21;;;;;;;59.28;28.75;;;;;;;;;;5014391;28;20022;-70
2024/03/04 12:14:07;;;;;;;59.70;30.10;;;;;;;;;;5015415;28;20547;-71
2024/03/04 12:16:53;;;;;;;60.70;29.33;;;;;;;;;;5015926;28;20034;-71
2024/03/04 12:19:38;;;;;;;63.35;30.13;;;;;;;;;;5016092;28;20018;-68
2024/03/04 12:22:27;;;;;;;58.25;28.50;;;;;;;;;;4995798;28;20022;-68
2024/03/04 12:25:13;;;;;;;50.95;26.85;;;;;;;;;;4995547;28;20090;-68
2024/03/04 12:27:59;;;;;;;58.38;27.80;;;;;;;;;;5014434;28;20093;-68
2024/03/04 12:30:46;;;;;;;51.95;26.70;;;;;;;;;;5014725;28;20061;-69
2024/03/04 12:33:32;;;;;;;50.25;25.95;;;;;;;;;;5015495;28;20089;-70
2024/03/04 12:36:17;;;;;;;54.53;26.55;;;;;;;;;;5015126;28;20076;-68
2024/03/04 12:39:03;;;;;;;50.97;25.63;;;;;;;;;;5014870;28;20111;-69
2024/03/04 12:41:49;;;;;;;47.13;25.63;;;;;;;;;;5015093;28;20034;-68
2024/03/04 12:44:35;;;;;;;45.92;25.45;;;;;;;;;;5011303;28;20033;-69
2024/03/04 12:47:21;;;;;;;47.58;26.02;;;;;;;;;;4995279;28;20033;-68
2024/03/04 12:50:07;;;;;;;49.95;26.02;;;;;;;;;;4999084;28;20058;-68
2024/03/04 12:52:54;;;;;;;48.40;25.85;;;;;;;;;;4995348;28;20019;-68
2024/03/04 12:55:41;;;;;;;41.83;24.00;;;;;;;;;;4994728;28;20034;-68
2024/03/04 12:58:27;;;;;;;43.30;24.80;;;;;;;;;;4998811;28;20027;-68
2024/03/04 13:01:16;;;;;;;45.97;25.13;;;;;;;;;;5007729;28;20101;-68
2024/03/04 13:04:03;;;;;;;42.60;23.88;;;;;;;;;;5012331;28;20065;-68
2024/03/04 13:06:49;;;;;;;47.45;25.23;;;;;;;;;;5009408;28;20030;-68
2024/03/04 13:09:34;;;;;;;50.17;25.92;;;;;;;;;;5013791;28;20026;-68
2024/03/04 13:12:20;;;;;;;48.25;24.38;;;;;;;;;;5013542;28;20018;-68
2024/03/04 13:15:07;;;;;;;46.63;24.85;;;;;;;;;;5000120;28;20125;-69
2024/03/04 13:17:53;;;;;;;52.33;25.33;;;;;;;;;;4992990;28;20514;-69
2024/03/04 13:20:39;;;;;;;40.45;24.25;;;;;;;;;;5000893;28;20034;-69
2024/03/04 13:23:25;;;;;;;50.72;26.77;;;;;;;;;;4994981;28;20106;-68
2024/03/04 13:26:11;;;;;;;50.67;27.08;;;;;;;;;;5003004;28;20017;-69
2024/03/04 13:28:56;;;;;;;50.33;24.85;;;;;;;;;;5013731;28;20033;-68
2024/03/04 13:31:42;;;;;;;47.88;24.50;;;;;;;;;;5011011;28;20025;-69
2024/03/04 13:34:28;;;;;;;52.47;24.77;;;;;;;;;;5014612;28;20121;-68
2024/03/04 13:37:14;;;;;;;49.67;26.13;;;;;;;;;;5010617;28;20018;-69
2024/03/04 13:39:59;;;;;;;46.47;24.92;;;;;;;;;;5013670;28;20079;-68
2024/03/04 13:42:45;;;;;;;44.83;25.35;;;;;;;;;;5012779;28;20026;-70
2024/03/04 13:45:30;;;;;;;44.70;24.58;;;;;;;;;;4993526;28;20488;-71
2024/03/04 13:48:16;;;;;;;50.92;22.13;;;;;;;;;;4994104;28;20385;-71
2024/03/04 13:51:03;;;;;;;49.17;26.33;;;;;;;;;;5011726;28;20101;-71
2024/03/04 13:53:48;;;;;;;50.28;23.63;;;;;;;;;;5026523;28;20033;-71
2024/03/04 13:56:35;;;;;;;46.15;23.77;;;;;;;;;;5014216;28;20061;-71
2024/03/04 13:59:20;;;;;;;49.15;25.05;;;;;;;;;;5011682;28;20028;-71
2024/03/04 14:02:07;;;;;;;48.92;24.40;;;;;;;;;;5014213;28;20480;-71
2024/03/04 14:04:53;;;;;;;50.25;23.65;;;;;;;;;;5013145;28;20060;-71
2024/03/04 14:07:38;;;;;;;49.58;25.13;;;;;;;;;;5013283;28;20018;-71
2024/03/04 14:10:24;;;;;;;44.22;23.52;;;;;;;;;;5013382;28;20025;-70
2024/03/04 14:13:13;;;;;;;48.15;23.80;;;;;;;;;;5004122;28;20033;-71
2024/03/04 14:15:59;;;;;;;40.67;21.23;;;;;;;;;;4993383;28;20026;-71
2024/03/04 14:18:44;;;;;;;43.45;22.88;;;;;;;;;;4999116;28;20492;-71
2024/03/04 14:21:30;;;;;;;55.22;23.58;;;;;;;;;;4992198;28;20041;-71
2024/03/04 14:24:16;;;;;;;47.35;22.95;;;;;;;;;;4999135;28;20028;-70
2024/03/04 14:27:05;;;;;;;43.25;21.67;;;;;;;;;;5012432;28;20037;-71
2024/03/04 14:29:52;;;;;;;42.47;21.98;;;;;;;;;;5011477;28;20034;-70
2024/03/04 14:32:38;;;;;;;43.92;22.60;;;;;;;;;;5013254;28;20086;-70
2024/03/04 14:35:24;;;;;;;39.83;19.20;;;;;;;;;;5012296;28;20462;-71
2024/03/04 14:38:09;;;;;;;47.80;23.92;;;;;;;;;;5012467;28;20025;-71
2024/03/04 14:40:55;;;;;;;43.33;20.67;;;;;;;;;;5013661;28;20412;-71
2024/03/04 14:43:41;;;;;;;46.42;22.42;;;;;;;;;;4999784;28;20057;-71
2024/03/04 14:46:26;;;;;;;47.80;22.52;;;;;;;;;;4992536;28;20029;-71
2024/03/04 14:49:12;;;;;;;46.22;23.50;;;;;;;;;;5000498;28;20105;-71
2024/03/04 14:51:57;;;;;;;39.92;19.30;;;;;;;;;;4991868;28;20411;-70
2024/03/04 14:54:43;;;;;;;47.42;22.15;;;;;;;;;;4997833;28;20087;-71
2024/03/04 14:57:31;;;;;;;48.15;24.52;;;;;;;;;;5007169;28;20030;-71
2024/03/04 15:00:17;;;;;;;46.22;23.38;;;;;;;;;;5012801;28;20014;-71
2024/03/04 15:03:04;;;;;;;44.88;22.90;;;;;;;;;;5008713;28;20026;-71
2024/03/04 15:05:49;;;;;;;47.97;20.58;;;;;;;;;;5010916;28;20407;-71
2024/03/04 15:08:37;;;;;;;43.40;21.42;;;;;;;;;;4992276;28;20112;-71
2024/03/04 15:11:23;;;;;;;45.30;23.55;;;;;;;;;;4997255;28;20106;-70
2024/03/04 15:14:09;;;;;;;43.45;21.48;;;;;;;;;;4991456;28;20030;-70
2024/03/04 15:16:54;;;;;;;39.95;20.90;;;;;;;;;;5002317;28;20088;-71
2024/03/04 15:19:40;;;;;;;37.42;19.70;;;;;;;;;;5012431;28;20018;-70
2024/03/04 15:22:26;;;;;;;41.00;19.92;;;;;;;;;;5008498;28;20018;-72
2024/03/04 15:25:15;;;;;;;41.50;19.08;;;;;;;;;;4990946;28;20041;-70
2024/03/04 15:28:00;;;;;;;36.50;17.88;;;;;;;;;;4996946;28;20025;-70
2024/03/04 15:30:46;;;;;;;39.25;17.48;;;;;;;;;;4992233;28;20019;-70
2024/03/04 15:33:32;;;;;;;39.95;16.67;;;;;;;;;;4992792;28;20459;-70
2024/03/04 15:36:19;;;;;;;38.08;18.30;;;;;;;;;;4996946;28;20189;-70
2024/03/04 15:39:10;;;;;;;37.17;20.08;;;;;;;;;;5005415;28;20018;-70
2024/03/04 15:41:56;;;;;;;37.53;17.85;;;;;;;;;;5011132;28;20083;-70
2024/03/04 15:44:42;;;;;;;36.50;18.17;;;;;;;;;;5012657;28;20108;-70
2024/03/04 15:47:27;;;;;;;35.90;17.25;;;;;;;;;;5013032;28;20025;-70
2024/03/04 15:50:15;;;;;;;29.73;17.30;;;;;;;;;;5005754;28;20022;-70
2024/03/04 15:53:00;;;;;;;38.65;18.27;;;;;;;;;;5005506;28;20022;-70
2024/03/04 15:55:46;;;;;;;40.50;15.30;;;;;;;;;;5012215;28;20403;-70
2024/03/04 15:58:31;;;;;;;38.17;17.77;;;;;;;;;;5004431;28;20053;-69
2024/03/04 16:01:21;;;;;;;37.15;17.42;;;;;;;;;;4998480;28;20047;-70
2024/03/04 16:04:07;;;;;;;38.33;18.45;;;;;;;;;;4997322;28;20029;-69
2024/03/04 16:06:53;;;;;;;38.00;17.25;;;;;;;;;;5011101;28;20026;-69